Grand Junction, CO

2:26 PM MDT on May 05, 2015 (GMT -0600)
Montrose Regional | | Change Station
CLOSE
Current Station
Airport
Location: Montrose,
Elevation: 5758 ft
Nearby Weather Stations

Elev 5758 ft 38.51 °N, 107.90 °W | Updated 33 minutes ago

Overcast
Overcast
55 °F
Feels Like 55 °F
N
4
Wind Variable Wind from West

Today
High -- | Low -- °F
--% Chance of Precip.
Yesterday
High -- | Low -- °F
Precip. -- in
6:11 AM 8:10 PM
Full, 97% visible
Pressure 29.72 in
Visibility 9.0 miles
Clouds Mostly Cloudy 2900 ft
Mostly Cloudy 5000 ft
Overcast 6000 ft
Dew Point 47 °F
Humidity 74%
Rainfall 0.03 in
Snow Depth Not available.
UV 4 out of 12
Pollen 7.70 out of 12
Air Quality Not available.
Flu Activity Sporadic
METAR KMTJ 051953Z AUTO 28003KT 9SM -RA BKN029 BKN050 OVC060 13/08 A2987 RMK AO2 RAB31 SLP064 P0001 T01280083

More Conditions Fewer Conditions

Pressure 29.72 in
Visibility 9.0 miles
Clouds Mostly Cloudy 2900 ft
Mostly Cloudy 5000 ft
Overcast 6000 ft
Dew Point 47 °F
Humidity 74%
Rainfall 0.03 in
Snow Depth Not available.
UV 4 out of 12
Pollen 7.70 out of 12
Air Quality Not available.
Flu Activity Sporadic
METAR KMTJ 051953Z AUTO 28003KT 9SM -RA BKN029 BKN050 OVC060 13/08 A2987 RMK AO2 RAB31 SLP064 P0001 T01280083

More Conditions Fewer Conditions

10-Day Weather Forecast

Almanac

Astronomy

May. 05, 2015 Rise Set
Actual Time
Civil Twilight
Nautical Twilight
Astronomical Twilight
Moon
Length of Visible Light
Length of Day
Tomorrow will be .
, % of the Moon is Illuminated

Today's Extremes

State Highs State Lows

Community

WunderPhotos

Upload Photos

1,818,966 photos uploaded!

WunderBlogs® & News

Nearby

Air Quality

  Air Quality AQ Index Pollutant
Not available.

Snow Depth

Station Depth Elevation

Earthquake Activity

City Distance Mag. Time & Date
Minimum magnitude displayed is 2.5.

Coastal Water Temperatures

Place Temperature

Stations

Nearby Weather Stations

Station Location Temp. Windchill Dew Point Humidity Wind Precip. Elev Updated Type